Time;durP1;ratioP1;P1;durP2;ratioP2;P2;SDS_P1;SDS_P2;PMS_P1;PMS_P2;Temp;Humidity;BMP_temperature;BMP_pressure;BME280_temperature;BME280_humidity;BME280_pressure;Samples;Min_cycle;Max_cycle;Signal;HPM_P1;HPM_P2
2023/07/01 00:01:51;;;;;;;1.30;1.30;;;24.10;68.70;;;;;;5037202;28;43492;-75
2023/07/01 00:04:19;;;;;;;1.30;1.30;;;24.00;68.80;;;;;;5034543;28;44051;-75
2023/07/01 00:06:49;;;;;;;1.20;1.20;;;24.00;69.10;;;;;;5053687;28;44576;-76
2023/07/01 00:09:17;;;;;;;1.50;1.40;;;24.00;69.00;;;;;;5046327;28;43514;-75
2023/07/01 00:11:45;;;;;;;1.13;1.13;;;24.00;69.00;;;;;;5054322;28;43511;-75
2023/07/01 00:14:13;;;;;;;1.10;1.10;;;24.00;69.00;;;;;;5057505;28;43358;-75
2023/07/01 00:16:41;;;;;;;1.20;1.20;;;23.90;69.40;;;;;;5035395;28;45701;-75
2023/07/01 00:19:09;;;;;;;1.43;1.43;;;24.00;69.00;;;;;;5053733;28;43412;-75
2023/07/01 00:21:37;;;;;;;1.03;1.03;;;24.00;68.70;;;;;;5046154;28;43380;-75
2023/07/01 00:24:07;;;;;;;1.30;1.30;;;24.10;68.30;;;;;;5048429;28;43507;-75
2023/07/01 00:26:36;;;;;;;1.10;1.10;;;24.30;68.20;;;;;;5049977;28;43583;-73
2023/07/01 00:29:04;;;;;;;1.20;1.20;;;24.30;68.00;;;;;;5034142;28;46031;-75
2023/07/01 00:31:32;;;;;;;1.20;1.20;;;24.30;68.00;;;;;;5035864;28;43525;-75
2023/07/01 00:34:00;;;;;;;1.30;1.30;;;24.20;68.10;;;;;;5047405;28;43479;-75
2023/07/01 00:36:28;;;;;;;1.10;1.10;;;24.10;68.50;;;;;;5056306;28;45678;-75
2023/07/01 00:38:56;;;;;;;1.10;1.10;;;24.10;68.40;;;;;;5056490;28;44944;-75
2023/07/01 00:41:25;;;;;;;1.20;1.20;;;24.10;68.40;;;;;;5029018;28;44028;-74
2023/07/01 00:43:54;;;;;;;1.30;1.30;;;24.00;68.60;;;;;;5048209;28;43416;-75
2023/07/01 00:46:22;;;;;;;1.50;1.50;;;24.00;69.00;;;;;;5047893;28;43598;-75
2023/07/01 00:48:51;;;;;;;0.90;0.90;;;24.00;68.90;;;;;;5045185;28;43495;-75
2023/07/01 00:51:19;;;;;;;1.20;1.20;;;24.00;69.00;;;;;;5051053;28;43430;-75
2023/07/01 00:53:47;;;;;;;1.10;1.10;;;24.00;69.00;;;;;;5028073;28;43853;-75
2023/07/01 00:56:15;;;;;;;1.20;1.20;;;23.90;69.20;;;;;;5061850;28;43742;-75
2023/07/01 00:58:44;;;;;;;1.20;1.20;;;23.90;69.30;;;;;;5032430;28;44698;-75
2023/07/01 01:01:14;;;;;;;1.30;1.30;;;23.90;69.20;;;;;;5055077;28;43391;-74
2023/07/01 01:03:45;;;;;;;1.10;1.10;;;23.90;69.20;;;;;;5049154;28;43443;-75
2023/07/01 01:06:17;;;;;;;1.30;1.30;;;23.90;69.10;;;;;;5027658;28;45525;-75
2023/07/01 01:08:48;;;;;;;1.40;1.40;;;23.90;69.50;;;;;;5058160;28;43402;-74
2023/07/01 01:11:16;;;;;;;1.30;1.30;;;23.90;69.00;;;;;;5046120;28;43464;-74
2023/07/01 01:13:45;;;;;;;1.60;1.60;;;24.00;68.70;;;;;;5050270;28;43404;-75
2023/07/01 01:16:13;;;;;;;1.20;1.20;;;24.10;69.00;;;;;;5034348;28;46013;-75
2023/07/01 01:18:42;;;;;;;1.30;1.30;;;24.20;68.00;;;;;;5036994;28;44993;-74
2023/07/01 01:21:10;;;;;;;1.40;1.40;;;24.30;67.90;;;;;;5030368;28;43531;-75
2023/07/01 01:23:43;;;;;;;1.33;1.33;;;24.30;68.00;;;;;;5060376;28;43633;-76
2023/07/01 01:26:16;;;;;;;1.50;1.50;;;24.20;67.90;;;;;;5049357;28;43644;-74
2023/07/01 01:28:46;;;;;;;1.30;1.30;;;24.10;68.30;;;;;;5034953;28;44247;-74
2023/07/01 01:31:14;;;;;;;1.30;1.30;;;24.10;68.20;;;;;;5049547;28;43467;-74
2023/07/01 01:33:42;;;;;;;1.40;1.40;;;24.10;68.30;;;;;;5034212;28;43703;-74
2023/07/01 01:36:11;;;;;;;1.40;1.40;;;24.00;68.50;;;;;;5041321;28;43619;-74
2023/07/01 01:38:40;;;;;;;1.33;1.33;;;24.00;68.80;;;;;;5049067;28;44874;-73
2023/07/01 01:41:12;;;;;;;1.33;1.33;;;24.00;68.70;;;;;;5046100;28;43420;-74
2023/07/01 01:43:42;;;;;;;1.40;1.40;;;24.00;68.70;;;;;;5051860;28;43519;-74
2023/07/01 01:46:12;;;;;;;1.30;1.30;;;23.90;68.80;;;;;;5046720;28;43745;-75
2023/07/01 01:48:40;;;;;;;1.30;1.30;;;23.90;69.10;;;;;;5046119;28;44926;-74
2023/07/01 01:51:08;;;;;;;1.40;1.40;;;23.90;68.90;;;;;;5048790;28;43547;-74
2023/07/01 01:53:37;;;;;;;1.27;1.27;;;24.00;68.50;;;;;;5034429;28;43832;-75
2023/07/01 01:56:06;;;;;;;1.40;1.40;;;24.10;68.20;;;;;;5046685;28;43628;-74
2023/07/01 01:58:34;;;;;;;1.37;1.37;;;24.20;67.90;;;;;;5049886;28;43448;-74
2023/07/01 02:01:02;;;;;;;1.30;1.30;;;24.20;67.90;;;;;;5029896;28;43993;-74
2023/07/01 02:03:31;;;;;;;1.40;1.40;;;24.20;67.90;;;;;;5039953;28;43444;-75
2023/07/01 02:06:00;;;;;;;1.27;1.27;;;24.10;68.00;;;;;;5028722;28;44921;-75
2023/07/01 02:08:28;;;;;;;1.23;1.23;;;24.10;68.40;;;;;;5050233;28;43416;-75
2023/07/01 02:10:57;;;;;;;1.20;1.20;;;24.00;68.30;;;;;;5029117;28;43539;-74
2023/07/01 02:13:25;;;;;;;1.20;1.20;;;24.00;68.50;;;;;;5034410;28;44397;-75
2023/07/01 02:15:53;;;;;;;1.37;1.37;;;24.00;68.60;;;;;;5035810;28;45329;-75
2023/07/01 02:18:21;;;;;;;1.33;1.33;;;23.90;68.90;;;;;;5049927;28;43451;-75
2023/07/01 02:20:52;;;;;;;1.33;1.33;;;23.90;68.90;;;;;;5033513;28;43527;-75
2023/07/01 02:23:20;;;;;;;1.30;1.30;;;23.90;68.80;;;;;;5034427;28;43592;-74
2023/07/01 02:25:48;;;;;;;1.27;1.27;;;23.90;68.90;;;;;;5048314;28;43607;-75
2023/07/01 02:28:16;;;;;;;1.30;1.30;;;23.90;69.30;;;;;;5031381;28;44518;-75
2023/07/01 02:30:44;;;;;;;1.20;1.20;;;23.90;69.10;;;;;;5057439;28;43966;-75
2023/07/01 02:33:12;;;;;;;1.20;1.20;;;23.90;68.70;;;;;;5052558;28;43894;-76
2023/07/01 02:35:40;;;;;;;1.60;1.60;;;24.00;68.40;;;;;;5053550;28;45687;-74
2023/07/01 02:38:11;;;;;;;1.47;1.47;;;24.10;68.00;;;;;;5033598;28;44705;-74
2023/07/01 02:40:39;;;;;;;1.50;1.50;;;24.10;67.90;;;;;;5037252;28;43432;-76
2023/07/01 02:43:07;;;;;;;1.40;1.40;;;24.20;67.90;;;;;;5053586;28;43405;-74
2023/07/01 02:45:35;;;;;;;1.40;1.40;;;24.10;68.00;;;;;;5046331;28;43612;-76
2023/07/01 02:48:04;;;;;;;1.30;1.30;;;24.00;68.40;;;;;;5040191;28;44973;-77
2023/07/01 02:50:32;;;;;;;1.37;1.37;;;24.00;68.30;;;;;;5047782;28;43420;-74
2023/07/01 02:53:00;;;;;;;1.40;1.40;;;24.00;68.40;;;;;;5050414;28;43831;-74
2023/07/01 02:55:29;;;;;;;1.50;1.50;;;24.00;68.60;;;;;;5049995;28;45722;-74
2023/07/01 02:57:58;;;;;;;1.40;1.40;;;23.90;68.90;;;;;;5052969;28;43535;-75
2023/07/01 03:00:26;;;;;;;1.37;1.37;;;23.90;68.80;;;;;;5054185;28;43554;-74
2023/07/01 03:02:54;;;;;;;1.40;1.40;;;23.90;68.90;;;;;;5051163;28;43431;-73
2023/07/01 03:05:23;;;;;;;1.40;1.40;;;23.90;68.90;;;;;;5035859;28;45715;-74
2023/07/01 03:07:52;;;;;;;1.70;1.70;;;23.80;69.00;;;;;;5030645;28;44444;-74
2023/07/01 03:10:21;;;;;;;1.47;1.47;;;23.80;69.10;;;;;;5047406;28;43417;-73
2023/07/01 03:12:50;;;;;;;1.40;1.40;;;23.90;68.90;;;;;;5033951;28;43494;-76
2023/07/01 03:15:18;;;;;;;1.30;1.30;;;24.00;68.70;;;;;;5044318;28;43677;-74
2023/07/01 03:17:47;;;;;;;1.50;1.50;;;24.10;68.20;;;;;;5037873;28;44868;-74
2023/07/01 03:20:22;;;;;;;1.53;1.53;;;24.20;67.90;;;;;;5033952;28;44004;-74
2023/07/01 03:22:53;;;;;;;1.40;1.40;;;24.10;67.70;;;;;;5050286;28;43390;-75
2023/07/01 03:25:22;;;;;;;1.40;1.40;;;24.10;67.80;;;;;;5035610;28;46024;-73
2023/07/01 03:27:51;;;;;;;1.23;1.23;;;24.10;68.10;;;;;;5032915;28;46023;-74
2023/07/01 03:30:19;;;;;;;1.40;1.40;;;24.00;68.40;;;;;;5055099;28;43489;-75
2023/07/01 03:32:48;;;;;;;1.33;1.33;;;24.00;68.30;;;;;;5033217;28;43570;-74
2023/07/01 03:35:16;;;;;;;1.50;1.50;;;24.00;68.50;;;;;;5045093;28;45840;-76
2023/07/01 03:37:45;;;;;;;1.33;1.33;;;23.90;68.60;;;;;;5053668;28;44990;-76
2023/07/01 03:40:13;;;;;;;1.50;1.50;;;23.90;69.00;;;;;;5042367;28;43576;-74
2023/07/01 03:42:41;;;;;;;1.47;1.47;;;23.90;69.00;;;;;;5050365;28;43577;-78
2023/07/01 03:45:12;;;;;;;1.43;1.43;;;23.90;69.00;;;;;;5045375;28;43863;-73
2023/07/01 03:47:42;;;;;;;1.20;1.20;;;23.80;68.70;;;;;;5037078;28;44702;-74
2023/07/01 03:50:10;;;;;;;1.60;1.60;;;23.80;69.10;;;;;;5039238;28;43512;-74
2023/07/01 03:52:39;;;;;;;1.40;1.40;;;23.80;69.00;;;;;;5057837;28;43439;-74
2023/07/01 03:55:11;;;;;;;1.40;1.40;;;23.90;68.60;;;;;;5049770;28;43888;-74
2023/07/01 03:57:39;;;;;;;1.20;1.20;;;24.00;68.30;;;;;;5050623;28;43911;-74
2023/07/01 04:00:15;;;;;;;1.20;1.20;;;24.10;68.20;;;;;;5052479;28;43457;-74
2023/07/01 04:02:45;;;;;;;1.60;1.60;;;24.10;68.10;;;;;;5052119;28;43420;-74
2023/07/01 04:05:13;;;;;;;1.30;1.30;;;24.10;68.10;;;;;;5052359;28;43617;-74
2023/07/01 04:07:41;;;;;;;1.30;1.30;;;24.00;68.30;;;;;;5051313;28;43536;-76
2023/07/01 04:10:10;;;;;;;1.40;1.40;;;24.00;68.60;;;;;;5060358;28;44019;-74
2023/07/01 04:12:39;;;;;;;1.40;1.40;;;24.00;68.60;;;;;;5028940;28;44183;-74
2023/07/01 04:15:09;;;;;;;1.30;1.30;;;23.90;68.60;;;;;;5053494;28;43844;-74
2023/07/01 04:17:40;;;;;;;1.30;1.30;;;23.90;68.50;;;;;;5026628;28;44267;-74
2023/07/01 04:20:10;;;;;;;1.50;1.50;;;23.90;69.10;;;;;;5050212;28;43405;-74
2023/07/01 04:22:39;;;;;;;1.30;1.30;;;23.90;69.00;;;;;;5049468;28;43440;-73
2023/07/01 04:25:07;;;;;;;1.20;1.20;;;23.80;69.00;;;;;;5047022;28;43973;-74
2023/07/01 04:27:35;;;;;;;1.40;1.40;;;23.80;68.80;;;;;;5047040;28;43897;-74
2023/07/01 04:30:04;;;;;;;1.40;1.40;;;23.80;69.30;;;;;;5051480;28;43427;-74
2023/07/01 04:32:32;;;;;;;1.40;1.40;;;23.80;69.20;;;;;;5052950;28;43412;-74
2023/07/01 04:35:00;;;;;;;1.13;1.13;;;23.80;69.20;;;;;;5052096;28;43858;-74
2023/07/01 04:37:30;;;;;;;1.20;1.20;;;23.80;69.00;;;;;;5052014;28;43436;-73
2023/07/01 04:39:58;;;;;;;1.20;1.20;;;23.70;69.00;;;;;;5039446;28;43552;-75
2023/07/01 04:42:26;;;;;;;1.20;1.20;;;23.70;69.30;;;;;;5037260;28;43522;-74
2023/07/01 04:44:54;;;;;;;1.50;1.50;;;23.70;69.10;;;;;;5030781;28;46220;-74
2023/07/01 04:47:22;;;;;;;1.20;1.20;;;23.90;68.80;;;;;;5056638;28;43457;-75
2023/07/01 04:49:52;;;;;;;1.40;1.40;;;24.00;68.40;;;;;;5053378;28;44017;-74
2023/07/01 04:52:21;;;;;;;1.40;1.40;;;24.10;68.10;;;;;;5051702;28;43403;-75
2023/07/01 04:54:51;;;;;;;1.50;1.50;;;24.10;67.90;;;;;;5043584;28;43595;-76
2023/07/01 04:57:19;;;;;;;1.40;1.40;;;24.10;67.80;;;;;;5026086;28;44934;-74
2023/07/01 04:59:47;;;;;;;1.40;1.40;;;24.10;68.00;;;;;;5050072;28;43548;-74
2023/07/01 05:02:15;;;;;;;1.47;1.47;;;24.00;68.30;;;;;;5050198;28;43953;-72
2023/07/01 05:04:44;;;;;;;1.30;1.30;;;24.00;68.30;;;;;;5052390;28;44122;-75
2023/07/01 05:07:12;;;;;;;1.27;1.27;;;24.00;68.40;;;;;;5026086;28;44719;-74
2023/07/01 05:09:40;;;;;;;1.20;1.20;;;23.90;68.20;;;;;;5053762;28;43835;-74
2023/07/01 05:12:10;;;;;;;1.33;1.20;;;23.90;68.80;;;;;;5048700;28;43508;-74
2023/07/01 05:14:38;;;;;;;1.47;1.47;;;23.90;68.90;;;;;;5048221;28;43944;-74
2023/07/01 05:17:06;;;;;;;1.20;1.20;;;23.90;68.90;;;;;;5026569;28;44886;-74
2023/07/01 05:19:34;;;;;;;1.30;1.30;;;23.80;68.60;;;;;;5032532;28;43420;-74
2023/07/01 05:22:02;;;;;;;1.40;1.40;;;23.80;69.00;;;;;;5053789;28;43953;-75
2023/07/01 05:24:30;;;;;;;1.30;1.30;;;23.80;69.10;;;;;;5026046;28;43927;-73
2023/07/01 05:26:58;;;;;;;1.50;1.50;;;23.80;68.90;;;;;;5028142;28;43995;-74
2023/07/01 05:29:28;;;;;;;1.40;1.40;;;23.90;68.60;;;;;;5032697;28;43572;-74
2023/07/01 05:31:56;;;;;;;1.40;1.40;;;24.00;68.20;;;;;;5027545;28;44011;-74
2023/07/01 05:34:24;;;;;;;1.70;1.60;;;24.10;68.20;;;;;;5031240;28;43567;-74
2023/07/01 05:36:52;;;;;;;1.30;1.30;;;24.00;68.00;;;;;;5019134;28;43396;-74
2023/07/01 05:39:20;;;;;;;1.30;1.30;;;24.00;68.10;;;;;;5032234;28;43395;-74
2023/07/01 05:41:48;;;;;;;1.30;1.30;;;24.00;68.50;;;;;;5031866;28;43407;-75
2023/07/01 05:44:16;;;;;;;1.40;1.40;;;23.90;68.60;;;;;;5027839;28;43880;-75
2023/07/01 05:46:46;;;;;;;1.40;1.40;;;23.90;68.50;;;;;;5026042;28;43441;-75
2023/07/01 05:49:14;;;;;;;1.57;1.57;;;23.90;68.50;;;;;;5031053;28;43372;-75
2023/07/01 05:51:42;;;;;;;1.47;1.47;;;23.80;69.00;;;;;;5034226;28;43519;-75
2023/07/01 05:54:10;;;;;;;1.40;1.40;;;23.80;69.00;;;;;;5024099;28;46065;-75
2023/07/01 05:56:38;;;;;;;1.50;1.50;;;23.80;69.00;;;;;;5028072;28;44904;-77
2023/07/01 05:59:06;;;;;;;1.50;1.50;;;23.80;68.80;;;;;;5033012;28;43442;-74
2023/07/01 06:01:34;;;;;;;1.50;1.50;;;23.70;68.90;;;;;;5025803;28;43515;-75
2023/07/01 06:04:03;;;;;;;1.23;1.23;;;23.70;69.20;;;;;;5023297;28;43878;-75
2023/07/01 06:06:31;;;;;;;1.50;1.50;;;23.70;69.00;;;;;;5049327;28;44672;-76
2023/07/01 06:09:00;;;;;;;1.40;1.40;;;23.90;68.80;;;;;;5024736;28;43419;-76
2023/07/01 06:11:28;;;;;;;1.20;1.20;;;24.00;68.30;;;;;;5028751;28;43403;-75
2023/07/01 06:13:55;;;;;;;1.50;1.50;;;24.00;68.10;;;;;;5028072;28;43748;-75
2023/07/01 06:16:23;;;;;;;1.27;1.27;;;24.00;68.10;;;;;;5034844;28;44021;-74
2023/07/01 06:18:51;;;;;;;1.30;1.30;;;24.00;68.20;;;;;;5037606;28;43423;-75
2023/07/01 06:21:21;;;;;;;1.23;1.23;;;23.90;68.40;;;;;;5037357;28;43476;-74
2023/07/01 06:23:49;;;;;;;1.37;1.37;;;23.90;68.60;;;;;;5041431;28;43778;-74
2023/07/01 06:26:17;;;;;;;1.30;1.30;;;23.90;68.70;;;;;;5044337;28;44822;-74
2023/07/01 06:28:45;;;;;;;1.40;1.40;;;23.80;68.50;;;;;;5051133;28;43400;-74
2023/07/01 06:31:13;;;;;;;1.30;1.30;;;23.80;68.50;;;;;;5044878;28;43495;-74
2023/07/01 06:33:41;;;;;;;1.50;1.50;;;23.70;69.00;;;;;;5038322;28;45609;-75
2023/07/01 06:36:09;;;;;;;1.50;1.50;;;23.80;69.00;;;;;;5046713;28;43404;-74
2023/07/01 06:38:38;;;;;;;1.37;1.37;;;23.90;68.80;;;;;;5054244;28;43504;-75
2023/07/01 06:41:06;;;;;;;1.30;1.30;;;23.90;68.30;;;;;;5038949;28;43882;-74
2023/07/01 06:43:38;;;;;;;1.40;1.40;;;24.00;68.20;;;;;;5046791;28;45427;-75
2023/07/01 06:46:06;;;;;;;1.47;1.33;;;24.00;68.20;;;;;;5047119;28;43403;-75
2023/07/01 06:48:35;;;;;;;1.30;1.30;;;24.00;68.20;;;;;;5046603;28;44042;-74
2023/07/01 06:51:04;;;;;;;1.27;1.27;;;23.90;68.50;;;;;;5048851;28;43437;-75
2023/07/01 06:53:32;;;;;;;1.30;1.30;;;23.80;68.70;;;;;;5026028;28;45670;-74
2023/07/01 06:56:01;;;;;;;1.40;1.40;;;23.80;68.70;;;;;;5047647;28;43461;-74
2023/07/01 06:58:29;;;;;;;1.30;1.30;;;23.80;68.60;;;;;;5052381;28;43512;-77
2023/07/01 07:00:57;;;;;;;1.20;1.20;;;23.70;68.70;;;;;;5031694;28;43433;-74
2023/07/01 07:03:25;;;;;;;1.30;1.30;;;23.70;69.00;;;;;;5044624;28;43590;-74
2023/07/01 07:05:54;;;;;;;1.30;1.30;;;23.70;69.00;;;;;;5051488;28;43456;-74
2023/07/01 07:08:22;;;;;;;1.30;1.30;;;23.70;69.00;;;;;;5050400;28;43412;-74
2023/07/01 07:10:50;;;;;;;1.23;1.23;;;23.70;68.80;;;;;;5051272;28;43481;-74
2023/07/01 07:13:20;;;;;;;1.60;1.60;;;23.60;69.20;;;;;;5048987;28;43614;-74
2023/07/01 07:15:47;;;;;;;1.20;1.20;;;23.60;69.20;;;;;;5046322;28;43511;-73
2023/07/01 07:18:16;;;;;;;1.30;1.30;;;23.60;69.20;;;;;;5046194;28;43510;-74
2023/07/01 07:20:44;;;;;;;1.40;1.40;;;23.60;68.90;;;;;;5047907;28;43535;-73
2023/07/01 07:23:13;;;;;;;1.23;1.23;;;23.60;69.30;;;;;;5038869;28;45560;-74
2023/07/01 07:25:42;;;;;;;1.30;1.30;;;23.60;69.50;;;;;;5052671;28;43528;-74
2023/07/01 07:28:09;;;;;;;1.57;1.57;;;23.70;69.20;;;;;;5052924;28;44160;-74
2023/07/01 07:30:39;;;;;;;1.40;1.40;;;23.70;68.60;;;;;;5027592;28;43472;-74
2023/07/01 07:33:07;;;;;;;1.40;1.40;;;23.90;68.40;;;;;;5056251;28;43746;-76
2023/07/01 07:35:35;;;;;;;1.30;1.30;;;24.00;68.00;;;;;;5057977;28;43361;-76
2023/07/01 07:38:07;;;;;;;1.20;1.20;;;24.00;67.80;;;;;;5057494;28;43450;-76
2023/07/01 07:40:35;;;;;;;1.30;1.30;;;24.00;67.90;;;;;;5054295;28;43472;-74
2023/07/01 07:43:09;;;;;;;1.30;1.30;;;24.00;68.20;;;;;;5050789;28;43965;-74
2023/07/01 07:45:38;;;;;;;1.60;1.50;;;23.90;68.30;;;;;;5056420;28;44420;-76
2023/07/01 07:48:06;;;;;;;1.40;1.40;;;23.90;68.40;;;;;;5043777;28;43395;-75
2023/07/01 07:50:35;;;;;;;1.30;1.30;;;23.80;68.40;;;;;;5052775;28;43360;-74
2023/07/01 07:53:03;;;;;;;1.33;1.33;;;23.80;68.60;;;;;;5060435;28;43708;-74
2023/07/01 07:55:33;;;;;;;1.30;1.30;;;23.70;68.90;;;;;;5059847;28;43383;-74
2023/07/01 07:58:02;;;;;;;1.30;1.30;;;23.70;68.90;;;;;;5045519;28;43939;-76
2023/07/01 08:00:30;;;;;;;1.43;1.43;;;23.70;68.70;;;;;;5063088;28;43866;-74
2023/07/01 08:02:59;;;;;;;1.40;1.40;;;23.60;68.80;;;;;;5054095;28;43606;-75
2023/07/01 08:05:28;;;;;;;1.50;1.50;;;23.60;69.20;;;;;;5037180;28;44598;-77
2023/07/01 08:07:56;;;;;;;1.33;1.33;;;23.60;69.20;;;;;;5049616;28;43415;-76
2023/07/01 08:10:24;;;;;;;1.20;1.20;;;23.60;69.00;;;;;;5053974;28;43436;-76
2023/07/01 08:12:52;;;;;;;1.30;1.30;;;23.60;68.90;;;;;;5049607;28;43706;-76
2023/07/01 08:15:20;;;;;;;1.40;1.30;;;23.60;69.50;;;;;;5050465;28;43816;-76
2023/07/01 08:17:48;;;;;;;1.30;1.30;;;23.60;69.30;;;;;;5051149;28;43433;-74
2023/07/01 08:20:17;;;;;;;1.30;1.30;;;23.70;68.90;;;;;;5034159;28;43519;-74
2023/07/01 08:22:45;;;;;;;1.33;1.33;;;23.80;68.60;;;;;;5053124;28;43741;-74
2023/07/01 08:25:13;;;;;;;1.40;1.40;;;23.90;68.20;;;;;;5052686;28;43436;-75
2023/07/01 08:27:41;;;;;;;1.30;1.30;;;24.00;68.10;;;;;;5035982;28;43425;-74
2023/07/01 08:30:11;;;;;;;1.30;1.30;;;24.00;68.80;;;;;;5035211;28;43545;-74
2023/07/01 08:32:40;;;;;;;1.50;1.50;;;23.90;68.20;;;;;;5049392;28;43874;-74
2023/07/01 08:35:08;;;;;;;1.50;1.50;;;23.80;68.30;;;;;;5052580;28;43960;-73
2023/07/01 08:37:38;;;;;;;1.50;1.47;;;23.80;68.40;;;;;;5034663;28;43347;-74
2023/07/01 08:40:07;;;;;;;1.50;1.40;;;23.80;68.60;;;;;;5052469;28;43512;-74
2023/07/01 08:42:38;;;;;;;1.30;1.30;;;23.70;68.40;;;;;;5050488;28;43877;-76
2023/07/01 08:45:07;;;;;;;1.40;1.40;;;23.70;69.00;;;;;;5059743;28;43388;-76
2023/07/01 08:47:35;;;;;;;1.27;1.27;;;23.70;69.00;;;;;;5062303;28;43442;-74
2023/07/01 08:50:05;;;;;;;1.40;1.40;;;23.70;69.00;;;;;;5063497;28;43487;-76
2023/07/01 08:52:34;;;;;;;1.27;1.27;;;23.60;68.80;;;;;;5039225;28;43617;-74
2023/07/01 08:55:04;;;;;;;1.67;1.47;;;23.60;69.40;;;;;;5025561;28;44872;-74
2023/07/01 08:57:32;;;;;;;1.20;1.20;;;23.60;69.50;;;;;;5039037;28;43471;-74
2023/07/01 09:00:00;;;;;;;1.40;1.40;;;23.60;69.50;;;;;;5045619;28;43444;-75
2023/07/01 09:02:28;;;;;;;1.50;1.50;;;23.60;69.10;;;;;;5021018;28;45759;-74
2023/07/01 09:04:57;;;;;;;1.30;1.30;;;23.60;68.90;;;;;;5045278;28;43483;-74
2023/07/01 09:07:25;;;;;;;1.33;1.33;;;23.50;69.10;;;;;;5045939;28;44353;-74
2023/07/01 09:09:54;;;;;;;1.40;1.40;;;23.60;68.90;;;;;;5046444;28;43496;-76
2023/07/01 09:12:25;;;;;;;1.73;1.30;;;23.70;68.60;;;;;;5045596;28;43562;-74
2023/07/01 09:15:00;;;;;;;1.50;1.50;;;23.80;68.10;;;;;;5025664;28;44920;-76
2023/07/01 09:17:29;;;;;;;1.30;1.30;;;23.90;67.80;;;;;;5045093;28;43501;-76
2023/07/01 09:20:00;;;;;;;1.50;1.40;;;23.90;67.80;;;;;;5046054;28;43539;-75
2023/07/01 09:22:28;;;;;;;1.33;1.33;;;23.90;67.90;;;;;;5045383;28;44065;-76
2023/07/01 09:24:56;;;;;;;2.40;1.30;;;23.80;67.90;;;;;;5044696;28;44060;-75
2023/07/01 09:27:26;;;;;;;1.73;1.40;;;23.80;68.20;;;;;;5027925;28;43393;-74
2023/07/01 09:29:54;;;;;;;1.30;1.30;;;23.70;68.30;;;;;;5045332;28;43520;-76
2023/07/01 09:32:29;;;;;;;1.37;1.37;;;23.70;68.20;;;;;;5044953;28;44093;-72
2023/07/01 09:34:58;;;;;;;1.30;1.30;;;23.70;68.00;;;;;;5045377;28;43463;-74
2023/07/01 09:37:26;;;;;;;1.20;1.20;;;23.60;68.70;;;;;;5029303;28;43391;-74
2023/07/01 09:39:54;;;;;;;1.50;1.50;;;23.60;68.70;;;;;;5044915;28;43950;-73
2023/07/01 09:42:22;;;;;;;2.77;1.47;;;23.60;69.20;;;;;;5028730;28;45320;-74
2023/07/01 09:45:07;;;;;;;1.60;1.50;;;23.60;68.30;;;;;;5043233;28;43419;-72
2023/07/01 09:47:38;;;;;;;2.93;1.40;;;23.60;68.80;;;;;;5044251;28;43503;-76
2023/07/01 09:50:08;;;;;;;1.50;1.50;;;23.50;68.80;;;;;;5029836;28;43593;-73
2023/07/01 09:52:38;;;;;;;2.93;1.60;;;23.60;68.50;;;;;;5044354;28;44220;-73
2023/07/01 09:55:07;;;;;;;1.50;1.50;;;23.70;68.30;;;;;;5042475;28;43511;-74
2023/07/01 09:57:36;;;;;;;1.80;1.50;;;23.80;68.00;;;;;;5044955;28;43456;-76
2023/07/01 10:00:09;;;;;;;2.60;1.30;;;23.90;67.90;;;;;;5047300;28;43605;-76
2023/07/01 10:02:37;;;;;;;1.40;1.40;;;23.90;68.00;;;;;;5044366;28;43827;-74
2023/07/01 10:05:06;;;;;;;2.03;1.50;;;23.90;67.70;;;;;;5047806;28;43574;-76
2023/07/01 10:07:34;;;;;;;1.40;1.40;;;23.80;68.30;;;;;;5029124;28;43989;-74
2023/07/01 10:10:02;;;;;;;1.93;1.60;;;23.70;68.30;;;;;;5047353;28;43420;-77
2023/07/01 10:12:30;;;;;;;1.33;1.33;;;23.70;68.20;;;;;;5045698;28;44080;-76
2023/07/01 10:14:58;;;;;;;3.40;1.70;;;23.70;68.00;;;;;;5044170;28;43653;-72
2023/07/01 10:17:44;;;;;;;1.50;1.50;;;23.60;68.10;;;;;;5045695;28;43439;-74
2023/07/01 10:20:28;;;;;;;1.47;1.47;;;23.60;68.20;;;;;;5044901;28;43393;-74
2023/07/01 10:22:56;;;;;;;2.87;1.80;;;23.60;67.80;;;;;;5041258;28;43890;-76
2023/07/01 10:25:31;;;;;;;1.70;1.70;;;23.60;67.70;;;;;;5049437;28;44610;-75
2023/07/01 10:28:08;;;;;;;2.10;2.00;;;23.60;67.40;;;;;;5029269;28;43525;-76
2023/07/01 10:31:09;;;;;;;1.90;1.80;;;23.50;66.40;;;;;;5041858;28;43491;-75
2023/07/01 10:34:06;;;;;;;1.83;1.70;;;23.60;66.90;;;;;;5028725;28;45662;-74
2023/07/01 10:36:36;;;;;;;1.90;1.77;;;23.70;66.50;;;;;;5046347;28;45685;-75
2023/07/01 10:39:33;;;;;;;1.87;1.77;;;23.80;66.40;;;;;;5043862;28;43449;-75
2023/07/01 10:42:01;;;;;;;7.50;1.70;;;23.90;66.60;;;;;;5047772;28;43585;-76
2023/07/01 10:44:29;;;;;;;1.93;1.80;;;23.90;66.60;;;;;;5049177;28;43907;-74
2023/07/01 10:47:16;;;;;;;1.90;1.80;;;23.90;66.60;;;;;;5048691;28;43492;-76
2023/07/01 10:50:08;;;;;;;1.97;1.70;;;23.80;67.10;;;;;;5049544;28;43430;-76
2023/07/01 10:53:03;;;;;;;1.70;1.60;;;23.80;67.20;;;;;;5028914;28;43480;-74
2023/07/01 10:55:43;;;;;;;1.37;1.37;;;23.70;67.10;;;;;;5046774;28;43601;-73
2023/07/01 10:58:17;;;;;;;1.87;1.80;;;23.70;66.90;;;;;;5047497;28;43460;-74
2023/07/01 11:00:45;;;;;;;1.63;1.60;;;23.70;67.60;;;;;;5049708;28;43467;-74
2023/07/01 11:03:47;;;;;;;1.63;1.63;;;23.70;67.60;;;;;;5049353;28;43483;-76
2023/07/01 11:06:17;;;;;;;1.70;1.60;;;23.60;67.20;;;;;;5056835;28;44680;-74
2023/07/01 11:08:46;;;;;;;1.77;1.67;;;23.60;67.00;;;;;;5040647;28;43555;-74
2023/07/01 11:11:19;;;;;;;1.67;1.60;;;23.60;67.70;;;;;;5047710;28;44428;-76
2023/07/01 11:14:02;;;;;;;1.70;1.60;;;23.60;67.30;;;;;;5047671;28;44006;-74
2023/07/01 11:16:30;;;;;;;1.80;1.70;;;23.70;66.90;;;;;;5030666;28;46072;-75
2023/07/01 11:19:00;;;;;;;1.60;1.60;;;23.80;66.70;;;;;;5032717;28;44712;-75
2023/07/01 11:21:29;;;;;;;1.60;1.60;;;23.90;66.80;;;;;;5048254;28;43429;-74
2023/07/01 11:23:59;;;;;;;1.60;1.60;;;23.90;66.90;;;;;;5047301;28;43436;-74
2023/07/01 11:26:28;;;;;;;1.40;1.40;;;23.80;66.70;;;;;;5048526;28;43608;-75
2023/07/01 11:28:56;;;;;;;1.80;1.80;;;23.80;67.40;;;;;;5029292;28;44661;-75
2023/07/01 11:31:25;;;;;;;1.60;1.60;;;23.70;67.40;;;;;;5032055;28;43498;-74
2023/07/01 11:33:55;;;;;;;1.60;1.60;;;23.70;67.40;;;;;;5046472;28;43764;-75
2023/07/01 11:36:35;;;;;;;1.77;1.60;;;23.70;67.10;;;;;;5046329;28;43616;-75
2023/07/01 11:39:10;;;;;;;1.70;1.70;;;23.60;67.20;;;;;;5044665;28;44308;-74
2023/07/01 11:41:39;;;;;;;1.77;1.70;;;23.60;67.90;;;;;;5045313;28;43523;-75
2023/07/01 11:44:07;;;;;;;1.83;1.73;;;23.70;67.70;;;;;;5047686;28;43416;-75
2023/07/01 11:46:37;;;;;;;1.50;1.40;;;23.70;67.40;;;;;;5052065;28;45650;-75
2023/07/01 11:49:12;;;;;;;1.40;1.40;;;23.90;67.00;;;;;;5044847;28;43476;-73
2023/07/01 11:51:43;;;;;;;1.70;1.70;;;23.90;66.90;;;;;;5045316;28;44548;-74
2023/07/01 11:54:11;;;;;;;1.50;1.50;;;23.90;67.00;;;;;;5046034;28;43528;-74
2023/07/01 11:56:42;;;;;;;1.60;1.60;;;23.90;67.00;;;;;;5045058;28;44076;-74
2023/07/01 11:59:10;;;;;;;1.53;1.43;;;23.80;67.60;;;;;;5047233;28;43354;-75
2023/07/01 12:01:38;;;;;;;1.60;1.60;;;23.70;67.40;;;;;;5045224;28;43574;-74
2023/07/01 12:04:16;;;;;;;1.57;1.53;;;23.70;67.50;;;;;;5045028;28;43470;-75
2023/07/01 12:06:46;;;;;;;1.60;1.60;;;23.70;67.20;;;;;;5044797;28;44090;-75
2023/07/01 12:09:27;;;;;;;1.70;1.60;;;23.60;67.50;;;;;;5047211;28;43541;-75
2023/07/01 12:11:55;;;;;;;1.50;1.50;;;23.60;67.90;;;;;;5051504;28;43507;-75
2023/07/01 12:14:23;;;;;;;1.50;1.40;;;23.60;67.90;;;;;;5048894;28;43424;-75
2023/07/01 12:16:52;;;;;;;1.63;1.50;;;23.60;67.50;;;;;;5045350;28;43569;-75
2023/07/01 12:19:21;;;;;;;1.53;1.53;;;23.60;67.40;;;;;;5044197;28;44027;-73
2023/07/01 12:21:51;;;;;;;1.77;1.67;;;23.50;68.00;;;;;;5045372;28;43552;-74
2023/07/01 12:24:19;;;;;;;1.50;1.40;;;23.60;68.20;;;;;;5046358;28;44006;-75
2023/07/01 12:26:47;;;;;;;1.63;1.60;;;23.50;67.70;;;;;;5046064;28;43749;-75
2023/07/01 12:29:15;;;;;;;1.50;1.40;;;23.50;67.60;;;;;;5031107;28;44068;-75
2023/07/01 12:31:44;;;;;;;1.50;1.50;;;23.50;68.10;;;;;;5046052;28;44010;-75
2023/07/01 12:34:12;;;;;;;1.50;1.50;;;23.50;68.30;;;;;;5046227;28;43476;-74
2023/07/01 12:36:40;;;;;;;1.70;1.60;;;23.60;68.00;;;;;;5045271;28;44017;-75
2023/07/01 12:39:10;;;;;;;1.40;1.40;;;23.70;67.50;;;;;;5043988;28;44034;-75
2023/07/01 12:41:38;;;;;;;1.67;1.67;;;23.80;66.90;;;;;;5044379;28;43424;-74
2023/07/01 12:44:08;;;;;;;1.30;1.30;;;23.90;66.80;;;;;;5046367;28;43599;-76
2023/07/01 12:46:38;;;;;;;1.60;1.30;;;23.90;66.60;;;;;;5044663;28;43755;-74
2023/07/01 12:49:06;;;;;;;1.50;1.50;;;23.90;66.80;;;;;;5042503;28;43913;-75
2023/07/01 12:51:36;;;;;;;1.70;1.70;;;23.80;67.10;;;;;;5028686;28;43646;-74
2023/07/01 12:54:04;;;;;;;1.33;1.33;;;23.80;66.80;;;;;;5051943;28;43638;-74
2023/07/01 12:56:46;;;;;;;1.30;1.30;;;23.80;67.30;;;;;;5046138;28;43879;-72
2023/07/01 12:59:15;;;;;;;1.37;1.37;;;23.70;67.90;;;;;;5045500;28;44322;-74
2023/07/01 13:01:46;;;;;;;1.40;1.40;;;23.70;67.40;;;;;;5046324;28;43865;-74